Home > Products > Valid Products > TAF

000
FTUS43 KIWX 282300 RRA
TAFFWA
TAF
KFWA 282339Z 2900/2924 11006KT P6SM SCT070 BKN250
     FM291400 17010KT P6SM BKN035
     FM291900 20014G22KT P6SM VCTS BKN040CB=



000
FTUS43 KIWX 281700
TAFFWA
TAF
KFWA 281720Z 2818/2918 11008KT P6SM FEW040 SCT250
     FM291400 19008KT P6SM BKN035=



000
FTUS43 KIWX 281700
TAFFWA
TAF
KFWA 281720Z 2818/2918 11008KT P6SM FEW040 SCT250
     FM291400 19008KT P6SM BKN035=



000
FTUS43 KIWX 281100
TAFFWA
TAF
KFWA 281137Z 2812/2912 VRB03KT 6SM BR SKC
     FM281400 11010KT P6SM FEW050
     FM290600 12006KT 6SM BR SCT015=



000
FTUS43 KIWX 281100
TAFFWA
TAF
KFWA 281137Z 2812/2912 VRB03KT 6SM BR SKC
     FM281400 11010KT P6SM FEW050
     FM290600 12006KT 6SM BR SCT015=



000
FTUS43 KIWX 280500
TAFFWA
TAF
KFWA 280520Z 2806/2906 VRB03KT 6SM BR SKC
      TEMPO 2810/2812 3SM BR
     FM281400 11008KT P6SM FEW050=



000
FTUS43 KIWX 272300
TAFFWA
TAF
KFWA 272322Z 2800/2824 28006KT P6SM SCT050 BKN090
     FM280400 VRB02KT 6SM BR SKC
      TEMPO 2810/2812 3SM BR
     FM281400 11008KT P6SM FEW050=



000
FTUS43 KIWX 271800 AAA
TAFFWA
TAF AMD
KFWA 271826Z 2718/2818 27016G25KT 3SM TSRA BKN035CB OVC080
     FM271900 25015G23KT 6SM -SHRA VCTS OVC035CB
      TEMPO 2719/2721 4SM -TSRA OVC030CB
     FM272100 26014KT P6SM VCSH BKN030
     FM280000 29007KT P6SM SCT050
     FM280600 VRB02KT 5SM BR SKC
     FM281200 13004KT P6SM FEW050=



000
FTUS43 KIWX 271700
TAFFWA
TAF
KFWA 271720Z 2718/2818 25015G23KT P6SM VCTS BKN035CB
      TEMPO 2718/2721 5SM -TSRA OVC030CB
     FM272100 26014KT P6SM VCSH BKN030
     FM280000 29007KT P6SM SCT050
     FM280600 VRB02KT 5SM BR SKC
     FM281200 13004KT P6SM FEW050=



000
FTUS43 KIWX 271100
TAFFWA
TAF
KFWA 271120Z 2712/2812 22012G22KT P6SM SCT050
     FM271600 23015G25KT P6SM BKN045
      TEMPO 2716/2720 5SM TSRA BKN030CB
     FM272100 27014KT P6SM VCSH BKN050
     FM280000 29006KT P6SM SCT050
     FM280600 VRB03KT 5SM BR SKC=



000
FTUS43 KIWX 271100
TAFFWA
TAF
KFWA 271120Z 2712/2812 22012G22KT P6SM SCT050
     FM271600 23015G25KT P6SM BKN045
      TEMPO 2716/2720 5SM TSRA BKN030CB
     FM272100 27014KT P6SM VCSH BKN050
     FM280000 29006KT P6SM SCT050
     FM280600 VRB03KT 5SM BR SKC=



000
FTUS43 KIWX 270500
TAFFWA
TAF
KFWA 270529Z 2706/2806 22008KT P6SM SCT030 BKN060
     FM271400 23015G22KT P6SM SCT030
     FM271700 25016G25KT P6SM VCTS BKN045CB
     FM272100 27014G24KT P6SM BKN050
     FM280000 29006KT P6SM SCT050=



000
FTUS43 KIWX 270500
TAFFWA
TAF
KFWA 270529Z 2706/2806 22008KT P6SM SCT030 BKN060
     FM271400 23015G22KT P6SM SCT030
     FM271700 25016G25KT P6SM VCTS BKN045CB
     FM272100 27014G24KT P6SM BKN050
     FM280000 29006KT P6SM SCT050=



000
FTUS43 KIWX 262300 RRA
TAFFWA
TAF
KFWA 262340Z 2700/2724 19015G22KT P6SM SCT050 BKN100
     FM270200 21012KT P6SM SCT030 BKN060
      TEMPO 2709/2713 3SM BR BKN020
     FM271400 23015G22KT P6SM SCT030
     FM271700 25016G25KT P6SM BKN045
     FM272300 28010KT P6SM SCT050=



000
FTUS43 KIWX 262300 RRA
TAFFWA
TAF
KFWA 262340Z 2700/2724 19015G22KT P6SM SCT050 BKN100
     FM270200 21012KT P6SM SCT030 BKN060
      TEMPO 2709/2713 3SM BR BKN020
     FM271400 23015G22KT P6SM SCT030
     FM271700 25016G25KT P6SM BKN045
     FM272300 28010KT P6SM SCT050=



000
FTUS43 KIWX 261700
TAFFWA
TAF
KFWA 261721Z 2618/2718 19017G25KT P6SM BKN050
      TEMPO 2619/2622 4SM -TSRA BKN025CB
     FM270200 21012KT P6SM BKN060=



000
FTUS43 KIWX 261700
TAFFWA
TAF
KFWA 261721Z 2618/2718 19017G25KT P6SM BKN050
      TEMPO 2619/2622 4SM -TSRA BKN025CB
     FM270200 21012KT P6SM BKN060=



000
FTUS43 KIWX 261100
TAFFWA
TAF
KFWA 261120Z 2612/2712 19010KT P6SM BKN012
     FM261400 20012KT P6SM BKN040
     FM261800 19017G25KT P6SM BKN050
      TEMPO 2618/2622 4SM -TSRA BKN025CB
     FM270200 21015G22KT P6SM BKN060=



000
FTUS43 KIWX 260500 RRA
TAFFWA
TAF
KFWA 260542Z 2606/2706 20010KT P6SM BKN250
     FM260900 20010KT P6SM BKN020
     FM261400 19012KT P6SM BKN040
     FM261800 19017G25KT P6SM BKN050
      TEMPO 2619/2623 4SM -TSRA BKN025CB=



    US Dept of Commerce
    National Oceanic and Atmospheric Administration
    National Weather Service
    1325 East West Highway
    Silver Spring, MD 20910
    Page Author: NWS Internet Services Team
Disclaimer
Information Quality
Credits
Glossary
Privacy Policy
Freedom of Information Act (FOIA)
About Us
Career Opportunities